sensor_id;sensor_type;location;lat;lon;timestamp;pressure;altitude;pressure_sealevel;temperature;humidity
43161;BME280;40968;52.342;5.528;2023-07-29T00:01:11;100650.88;;;18.97;69.84
43161;BME280;40968;52.342;5.528;2023-07-29T00:03:39;100715.28;;;19.36;69.36
43161;BME280;40968;52.342;5.528;2023-07-29T00:06:06;100530.09;;;18.20;69.25
43161;BME280;40968;52.342;5.528;2023-07-29T00:08:32;100510.25;;;18.19;69.52
43161;BME280;40968;52.342;5.528;2023-07-29T00:10:59;100719.34;;;19.40;69.26
43161;BME280;40968;52.342;5.528;2023-07-29T00:13:26;100569.84;;;18.61;69.48
43161;BME280;40968;52.342;5.528;2023-07-29T00:15:53;100384.28;;;17.41;69.52
43161;BME280;40968;52.342;5.528;2023-07-29T00:18:21;100675.97;;;19.15;69.33
43161;BME280;40968;52.342;5.528;2023-07-29T00:20:49;100634.06;;;18.85;69.18
43161;BME280;40968;52.342;5.528;2023-07-29T00:23:17;100652.94;;;18.95;69.42
43161;BME280;40968;52.342;5.528;2023-07-29T00:25:45;100721.06;;;19.33;69.45
43161;BME280;40968;52.342;5.528;2023-07-29T00:28:11;100720.56;;;19.29;69.50
43161;BME280;40968;52.342;5.528;2023-07-29T00:30:38;100610.19;;;18.72;69.24
43161;BME280;40968;52.342;5.528;2023-07-29T00:33:05;100650.22;;;18.86;69.71
43161;BME280;40968;52.342;5.528;2023-07-29T00:35:32;100571.78;;;18.35;69.25
43161;BME280;40968;52.342;5.528;2023-07-29T00:38:00;100707.84;;;19.21;69.25
43161;BME280;40968;52.342;5.528;2023-07-29T00:40:28;100704.81;;;19.16;69.71
43161;BME280;40968;52.342;5.528;2023-07-29T00:42:55;100705.53;;;19.10;69.86
43161;BME280;40968;52.342;5.528;2023-07-29T00:45:23;100621.41;;;18.61;69.53
43161;BME280;40968;52.342;5.528;2023-07-29T00:47:51;100624.78;;;18.63;70.06
43161;BME280;40968;52.342;5.528;2023-07-29T00:50:18;100582.28;;;18.38;69.72
43161;BME280;40968;52.342;5.528;2023-07-29T00:52:45;100697.88;;;19.05;69.75
43161;BME280;40968;52.342;5.528;2023-07-29T00:55:13;100695.00;;;19.07;70.13
43161;BME280;40968;52.342;5.528;2023-07-29T00:57:39;100659.69;;;18.82;69.75
43161;BME280;40968;52.342;5.528;2023-07-29T01:00:08;100698.56;;;19.08;69.98
43161;BME280;40968;52.342;5.528;2023-07-29T01:02:36;100680.06;;;19.03;69.60
43161;BME280;40968;52.342;5.528;2023-07-29T01:05:03;100682.41;;;19.06;69.47
43161;BME280;40968;52.342;5.528;2023-07-29T01:07:33;100684.47;;;19.04;69.51
43161;BME280;40968;52.342;5.528;2023-07-29T01:10:05;100680.06;;;19.03;69.04
43161;BME280;40968;52.342;5.528;2023-07-29T01:12:41;100662.09;;;18.94;69.20
43161;BME280;40968;52.342;5.528;2023-07-29T01:15:13;100429.31;;;17.50;68.85
43161;BME280;40968;52.342;5.528;2023-07-29T01:17:43;100676.00;;;18.99;69.00
43161;BME280;40968;52.342;5.528;2023-07-29T01:20:14;100364.47;;;17.07;68.50
43161;BME280;40968;52.342;5.528;2023-07-29T01:22:41;100681.63;;;18.97;68.69
43161;BME280;40968;52.342;5.528;2023-07-29T01:25:10;100538.06;;;18.13;68.86
43161;BME280;40968;52.342;5.528;2023-07-29T01:27:36;100476.22;;;17.76;68.53
43161;BME280;40968;52.342;5.528;2023-07-29T01:30:04;100568.22;;;18.27;68.75
43161;BME280;40968;52.342;5.528;2023-07-29T01:32:36;100636.69;;;18.62;69.07
43161;BME280;40968;52.342;5.528;2023-07-29T01:35:12;100606.66;;;18.47;68.76
43161;BME280;40968;52.342;5.528;2023-07-29T01:37:42;100666.00;;;18.83;69.23
43161;BME280;40968;52.342;5.528;2023-07-29T01:40:11;100553.16;;;18.16;68.91
43161;BME280;40968;52.342;5.528;2023-07-29T01:42:39;100670.56;;;18.82;69.00
43161;BME280;40968;52.342;5.528;2023-07-29T01:45:06;100678.06;;;18.80;69.24
43161;BME280;40968;52.342;5.528;2023-07-29T01:47:33;100511.94;;;17.79;69.64
43161;BME280;40968;52.342;5.528;2023-07-29T01:50:00;100668.38;;;18.78;69.92
43161;BME280;40968;52.342;5.528;2023-07-29T01:52:26;100615.81;;;18.46;70.10
43161;BME280;40968;52.342;5.528;2023-07-29T01:54:53;100656.34;;;18.64;69.92
43161;BME280;40968;52.342;5.528;2023-07-29T01:57:21;100637.38;;;18.55;70.30
43161;BME280;40968;52.342;5.528;2023-07-29T01:59:48;100629.06;;;18.49;69.99
43161;BME280;40968;52.342;5.528;2023-07-29T02:02:14;100669.91;;;18.72;70.48
43161;BME280;40968;52.342;5.528;2023-07-29T02:04:41;100662.78;;;18.71;70.49
43161;BME280;40968;52.342;5.528;2023-07-29T02:07:08;100655.34;;;18.56;70.49
43161;BME280;40968;52.342;5.528;2023-07-29T02:09:35;100661.59;;;18.65;70.94
43161;BME280;40968;52.342;5.528;2023-07-29T02:12:01;100578.22;;;18.10;71.33
43161;BME280;40968;52.342;5.528;2023-07-29T02:14:29;100635.69;;;18.38;71.49
43161;BME280;40968;52.342;5.528;2023-07-29T02:16:56;100538.88;;;17.81;71.60
43161;BME280;40968;52.342;5.528;2023-07-29T02:19:23;100619.56;;;18.28;71.89
43161;BME280;40968;52.342;5.528;2023-07-29T02:21:49;100557.19;;;17.87;72.44
43161;BME280;40968;52.342;5.528;2023-07-29T02:24:16;100495.34;;;17.49;72.62
43161;BME280;40968;52.342;5.528;2023-07-29T02:26:42;100552.44;;;17.81;73.03
43161;BME280;40968;52.342;5.528;2023-07-29T02:29:09;100649.09;;;18.39;73.13
43161;BME280;40968;52.342;5.528;2023-07-29T02:31:37;100609.59;;;18.12;73.09
43161;BME280;40968;52.342;5.528;2023-07-29T02:34:04;100370.97;;;16.64;73.33
43161;BME280;40968;52.342;5.528;2023-07-29T02:36:30;100625.50;;;18.15;73.96
43161;BME280;40968;52.342;5.528;2023-07-29T02:38:57;100623.47;;;18.17;73.75
43161;BME280;40968;52.342;5.528;2023-07-29T02:41:23;100612.28;;;18.12;73.79
43161;BME280;40968;52.342;5.528;2023-07-29T02:43:50;100648.91;;;18.33;73.75
43161;BME280;40968;52.342;5.528;2023-07-29T02:46:17;100588.91;;;18.03;74.02
43161;BME280;40968;52.342;5.528;2023-07-29T02:48:45;100599.06;;;18.09;74.16
43161;BME280;40968;52.342;5.528;2023-07-29T02:51:12;100640.09;;;18.31;74.02
43161;BME280;40968;52.342;5.528;2023-07-29T02:53:39;100643.81;;;18.30;74.12
43161;BME280;40968;52.342;5.528;2023-07-29T02:56:05;100565.81;;;17.82;74.01
43161;BME280;40968;52.342;5.528;2023-07-29T02:58:34;100583.94;;;17.90;74.70
43161;BME280;40968;52.342;5.528;2023-07-29T03:01:01;100570.53;;;17.80;74.72
43161;BME280;40968;52.342;5.528;2023-07-29T03:03:28;100635.16;;;18.18;75.12
43161;BME280;40968;52.342;5.528;2023-07-29T03:05:59;100644.50;;;18.15;75.12
43161;BME280;40968;52.342;5.528;2023-07-29T03:08:26;100638.41;;;18.13;75.06
43161;BME280;40968;52.342;5.528;2023-07-29T03:10:53;100514.94;;;17.35;75.17
43161;BME280;40968;52.342;5.528;2023-07-29T03:13:20;100618.69;;;17.95;75.31
43161;BME280;40968;52.342;5.528;2023-07-29T03:15:46;100548.50;;;17.59;75.44
43161;BME280;40968;52.342;5.528;2023-07-29T03:18:14;100541.22;;;17.51;75.26
43161;BME280;40968;52.342;5.528;2023-07-29T03:20:41;100513.25;;;17.34;75.54
43161;BME280;40968;52.342;5.528;2023-07-29T03:23:09;100585.47;;;17.84;75.43
43161;BME280;40968;52.342;5.528;2023-07-29T03:25:35;100630.94;;;18.07;75.53
43161;BME280;40968;52.342;5.528;2023-07-29T03:28:02;100580.19;;;17.74;75.15
43161;BME280;40968;52.342;5.528;2023-07-29T03:30:29;100614.97;;;17.96;75.29
43161;BME280;40968;52.342;5.528;2023-07-29T03:32:56;100503.59;;;17.31;75.37
43161;BME280;40968;52.342;5.528;2023-07-29T03:35:22;100626.88;;;18.03;75.29
43161;BME280;40968;52.342;5.528;2023-07-29T03:37:49;100586.50;;;17.75;75.30
43161;BME280;40968;52.342;5.528;2023-07-29T03:40:17;100569.88;;;17.70;75.35
43161;BME280;40968;52.342;5.528;2023-07-29T03:42:43;100550.88;;;17.53;75.67
43161;BME280;40968;52.342;5.528;2023-07-29T03:45:10;100528.66;;;17.33;75.58
43161;BME280;40968;52.342;5.528;2023-07-29T03:47:37;100626.50;;;17.89;76.10
43161;BME280;40968;52.342;5.528;2023-07-29T03:50:05;100467.63;;;16.96;76.06
43161;BME280;40968;52.342;5.528;2023-07-29T03:52:31;100612.59;;;17.84;75.98
43161;BME280;40968;52.342;5.528;2023-07-29T03:54:58;100463.41;;;16.94;76.09
43161;BME280;40968;52.342;5.528;2023-07-29T03:57:26;100510.84;;;17.22;76.19
43161;BME280;40968;52.342;5.528;2023-07-29T03:59:54;100574.91;;;17.56;76.46
43161;BME280;40968;52.342;5.528;2023-07-29T04:02:21;100526.97;;;17.32;76.50
43161;BME280;40968;52.342;5.528;2023-07-29T04:04:47;100608.16;;;17.75;76.46
43161;BME280;40968;52.342;5.528;2023-07-29T04:07:14;100535.94;;;17.33;76.83
43161;BME280;40968;52.342;5.528;2023-07-29T04:09:41;100461.63;;;16.76;76.95
43161;BME280;40968;52.342;5.528;2023-07-29T04:12:09;100614.91;;;17.71;77.12
43161;BME280;40968;52.342;5.528;2023-07-29T04:14:37;100592.88;;;17.49;77.31
43161;BME280;40968;52.342;5.528;2023-07-29T04:17:04;100625.56;;;17.64;77.21
43161;BME280;40968;52.342;5.528;2023-07-29T04:19:30;100517.22;;;16.97;77.36
43161;BME280;40968;52.342;5.528;2023-07-29T04:21:57;100628.63;;;17.61;77.45
43161;BME280;40968;52.342;5.528;2023-07-29T04:24:24;100402.88;;;16.17;77.49
43161;BME280;40968;52.342;5.528;2023-07-29T04:26:50;100636.22;;;17.57;77.39
43161;BME280;40968;52.342;5.528;2023-07-29T04:29:17;100577.19;;;17.18;77.46
43161;BME280;40968;52.342;5.528;2023-07-29T04:31:45;100571.41;;;17.13;77.38
43161;BME280;40968;52.342;5.528;2023-07-29T04:34:12;100623.31;;;17.51;76.94
43161;BME280;40968;52.342;5.528;2023-07-29T04:36:38;100619.63;;;17.52;77.29
43161;BME280;40968;52.342;5.528;2023-07-29T04:39:05;100555.16;;;17.13;76.92
43161;BME280;40968;52.342;5.528;2023-07-29T04:41:31;100594.53;;;17.42;76.33
43161;BME280;40968;52.342;5.528;2023-07-29T04:43:58;100567.34;;;17.17;76.50
43161;BME280;40968;52.342;5.528;2023-07-29T04:46:25;100336.09;;;15.75;76.23
43161;BME280;40968;52.342;5.528;2023-07-29T04:48:53;100626.22;;;17.50;76.41
43161;BME280;40968;52.342;5.528;2023-07-29T04:51:19;100567.16;;;17.11;76.16
43161;BME280;40968;52.342;5.528;2023-07-29T04:53:46;100636.22;;;17.49;75.98
43161;BME280;40968;52.342;5.528;2023-07-29T04:56:12;100307.94;;;15.51;75.73
43161;BME280;40968;52.342;5.528;2023-07-29T04:58:39;100618.25;;;17.48;75.93
43161;BME280;40968;52.342;5.528;2023-07-29T05:01:06;100488.94;;;16.56;76.01
43161;BME280;40968;52.342;5.528;2023-07-29T05:03:32;100517.66;;;16.84;75.73
43161;BME280;40968;52.342;5.528;2023-07-29T05:06:01;100552.44;;;17.05;75.46
43161;BME280;40968;52.342;5.528;2023-07-29T05:08:27;100619.56;;;17.36;75.50
43161;BME280;40968;52.342;5.528;2023-07-29T05:10:54;100635.84;;;17.44;75.38
43161;BME280;40968;52.342;5.528;2023-07-29T05:13:22;100646.69;;;17.44;75.83
43161;BME280;40968;52.342;5.528;2023-07-29T05:15:49;100518.78;;;16.73;75.54
43161;BME280;40968;52.342;5.528;2023-07-29T05:18:16;100410.09;;;16.08;75.81
43161;BME280;40968;52.342;5.528;2023-07-29T05:20:43;100578.19;;;17.17;75.54
43161;BME280;40968;52.342;5.528;2023-07-29T05:23:11;100566.31;;;17.02;75.58
43161;BME280;40968;52.342;5.528;2023-07-29T05:25:37;100637.56;;;17.53;75.68
43161;BME280;40968;52.342;5.528;2023-07-29T05:28:04;100646.41;;;17.55;75.57
43161;BME280;40968;52.342;5.528;2023-07-29T05:30:32;100598.56;;;17.30;75.31
43161;BME280;40968;52.342;5.528;2023-07-29T05:33:02;100647.94;;;17.58;75.46
43161;BME280;40968;52.342;5.528;2023-07-29T05:35:29;100603.31;;;17.36;75.27
43161;BME280;40968;52.342;5.528;2023-07-29T05:37:56;100608.06;;;17.42;75.65
43161;BME280;40968;52.342;5.528;2023-07-29T05:40:24;100650.13;;;17.71;75.40
43161;BME280;40968;52.342;5.528;2023-07-29T05:42:50;100646.44;;;17.72;75.53
43161;BME280;40968;52.342;5.528;2023-07-29T05:45:17;100627.09;;;17.59;75.20
43161;BME280;40968;52.342;5.528;2023-07-29T05:47:43;100595.88;;;17.46;75.05
43161;BME280;40968;52.342;5.528;2023-07-29T05:50:10;100650.84;;;17.81;75.15
43161;BME280;40968;52.342;5.528;2023-07-29T05:52:37;100639.66;;;17.76;74.85
43161;BME280;40968;52.342;5.528;2023-07-29T05:55:04;100615.75;;;17.63;75.13
43161;BME280;40968;52.342;5.528;2023-07-29T05:57:32;100655.28;;;17.90;75.17
43161;BME280;40968;52.342;5.528;2023-07-29T05:59:59;100584.41;;;17.52;75.12
43161;BME280;40968;52.342;5.528;2023-07-29T06:02:25;100657.34;;;17.97;74.84
43161;BME280;40968;52.342;5.528;2023-07-29T06:04:52;100585.09;;;17.54;74.80
43161;BME280;40968;52.342;5.528;2023-07-29T06:07:19;100671.75;;;17.97;74.64
43161;BME280;40968;52.342;5.528;2023-07-29T06:09:46;100665.16;;;18.00;74.88
43161;BME280;40968;52.342;5.528;2023-07-29T06:12:12;100661.25;;;18.02;74.93
43161;BME280;40968;52.342;5.528;2023-07-29T06:14:40;100433.84;;;16.66;74.53
43161;BME280;40968;52.342;5.528;2023-07-29T06:17:07;100434.19;;;16.63;74.95
43161;BME280;40968;52.342;5.528;2023-07-29T06:19:36;100601.72;;;17.68;74.80
43161;BME280;40968;52.342;5.528;2023-07-29T06:22:03;100671.97;;;18.20;74.68
43161;BME280;40968;52.342;5.528;2023-07-29T06:24:31;100663.31;;;18.25;74.62
43161;BME280;40968;52.342;5.528;2023-07-29T06:26:57;100571.91;;;17.76;74.80
43161;BME280;40968;52.342;5.528;2023-07-29T06:29:24;100627.38;;;18.15;74.22
43161;BME280;40968;52.342;5.528;2023-07-29T06:31:52;100661.78;;;18.39;74.50
43161;BME280;40968;52.342;5.528;2023-07-29T06:34:19;100570.06;;;17.85;74.29
43161;BME280;40968;52.342;5.528;2023-07-29T06:36:46;100660.63;;;18.50;74.83
43161;BME280;40968;52.342;5.528;2023-07-29T06:39:13;100647.53;;;18.45;74.36
43161;BME280;40968;52.342;5.528;2023-07-29T06:41:39;100651.59;;;18.58;73.88
43161;BME280;40968;52.342;5.528;2023-07-29T06:44:06;100656.50;;;18.70;74.10
43161;BME280;40968;52.342;5.528;2023-07-29T06:46:33;100648.69;;;18.76;73.27
43161;BME280;40968;52.342;5.528;2023-07-29T06:49:01;100654.44;;;18.81;73.24
43161;BME280;40968;52.342;5.528;2023-07-29T06:51:27;100577.03;;;18.37;73.09
43161;BME280;40968;52.342;5.528;2023-07-29T06:53:57;100589.72;;;18.53;72.59
43161;BME280;40968;52.342;5.528;2023-07-29T06:56:25;100655.63;;;19.03;72.50
43161;BME280;40968;52.342;5.528;2023-07-29T06:58:52;100560.22;;;18.42;72.37
43161;BME280;40968;52.342;5.528;2023-07-29T07:01:18;100658.66;;;19.08;72.26
43161;BME280;40968;52.342;5.528;2023-07-29T07:03:45;100560.03;;;18.51;72.25
43161;BME280;40968;52.342;5.528;2023-07-29T07:06:13;100642.72;;;19.05;71.82
43161;BME280;40968;52.342;5.528;2023-07-29T07:08:40;100477.38;;;18.06;71.38
43161;BME280;40968;52.342;5.528;2023-07-29T07:11:07;100626.25;;;19.07;71.45
43161;BME280;40968;52.342;5.528;2023-07-29T07:13:34;100634.53;;;19.13;71.50
43161;BME280;40968;52.342;5.528;2023-07-29T07:16:00;100673.50;;;19.37;71.49
43161;BME280;40968;52.342;5.528;2023-07-29T07:18:27;100671.75;;;19.52;71.07
43161;BME280;40968;52.342;5.528;2023-07-29T07:20:54;100616.91;;;19.09;70.91
43161;BME280;40968;52.342;5.528;2023-07-29T07:23:22;100433.50;;;18.02;70.61
43161;BME280;40968;52.342;5.528;2023-07-29T07:25:48;100633.13;;;19.26;70.97
43161;BME280;40968;52.342;5.528;2023-07-29T07:28:15;100672.94;;;19.50;71.18
43161;BME280;40968;52.342;5.528;2023-07-29T07:30:42;100513.38;;;18.56;71.05
43161;BME280;40968;52.342;5.528;2023-07-29T07:33:08;100653.47;;;19.38;70.89
43161;BME280;40968;52.342;5.528;2023-07-29T07:35:35;100617.88;;;19.25;70.52
43161;BME280;40968;52.342;5.528;2023-07-29T07:38:02;100632.38;;;19.40;70.67
43161;BME280;40968;52.342;5.528;2023-07-29T07:40:31;100659.94;;;19.68;70.46
43161;BME280;40968;52.342;5.528;2023-07-29T07:42:58;100675.72;;;19.81;70.20
43161;BME280;40968;52.342;5.528;2023-07-29T07:45:24;100649.06;;;19.68;69.34
43161;BME280;40968;52.342;5.528;2023-07-29T07:47:51;100692.66;;;19.92;69.40
43161;BME280;40968;52.342;5.528;2023-07-29T07:50:19;100474.50;;;18.64;69.64
43161;BME280;40968;52.342;5.528;2023-07-29T07:52:45;100646.16;;;19.70;69.27
43161;BME280;40968;52.342;5.528;2023-07-29T07:55:12;100685.13;;;19.94;69.26
43161;BME280;40968;52.342;5.528;2023-07-29T07:57:40;100465.72;;;18.62;69.22
43161;BME280;40968;52.342;5.528;2023-07-29T08:00:08;100604.19;;;19.41;69.20
43161;BME280;40968;52.342;5.528;2023-07-29T08:02:36;100670.03;;;19.91;69.28
43161;BME280;40968;52.342;5.528;2023-07-29T08:05:03;100652.94;;;19.82;69.37
43161;BME280;40968;52.342;5.528;2023-07-29T08:07:29;100694.34;;;20.16;68.73
43161;BME280;40968;52.342;5.528;2023-07-29T08:09:56;100581.38;;;19.50;68.53
43161;BME280;40968;52.342;5.528;2023-07-29T08:12:23;100581.56;;;19.49;68.55
43161;BME280;40968;52.342;5.528;2023-07-29T08:14:51;100697.56;;;20.19;68.49
43161;BME280;40968;52.342;5.528;2023-07-29T08:17:17;100587.13;;;19.55;68.82
43161;BME280;40968;52.342;5.528;2023-07-29T08:19:44;100677.56;;;20.12;68.84
43161;BME280;40968;52.342;5.528;2023-07-29T08:22:11;100690.38;;;20.27;68.23
43161;BME280;40968;52.342;5.528;2023-07-29T08:24:37;100583.22;;;19.58;68.26
43161;BME280;40968;52.342;5.528;2023-07-29T08:27:05;100609.44;;;19.74;68.83
43161;BME280;40968;52.342;5.528;2023-07-29T08:29:32;100692.78;;;20.21;69.06
43161;BME280;40968;52.342;5.528;2023-07-29T08:32:00;100686.69;;;20.19;68.82
43161;BME280;40968;52.342;5.528;2023-07-29T08:34:26;100497.47;;;19.01;69.19
43161;BME280;40968;52.342;5.528;2023-07-29T08:36:53;100695.03;;;20.18;69.25
43161;BME280;40968;52.342;5.528;2023-07-29T08:39:19;100694.00;;;20.19;69.62
43161;BME280;40968;52.342;5.528;2023-07-29T08:41:52;100693.94;;;20.27;69.06
43161;BME280;40968;52.342;5.528;2023-07-29T08:44:22;100668.00;;;20.16;69.03
43161;BME280;40968;52.342;5.528;2023-07-29T08:46:49;100641.03;;;20.07;68.48
43161;BME280;40968;52.342;5.528;2023-07-29T08:49:18;100657.97;;;20.17;68.19
43161;BME280;40968;52.342;5.528;2023-07-29T08:51:46;100690.97;;;20.37;68.16
43161;BME280;40968;52.342;5.528;2023-07-29T08:54:14;100665.94;;;20.18;68.26
43161;BME280;40968;52.342;5.528;2023-07-29T08:56:42;100645.44;;;20.08;68.29
43161;BME280;40968;52.342;5.528;2023-07-29T08:59:09;100700.03;;;20.52;68.09
43161;BME280;40968;52.342;5.528;2023-07-29T09:01:36;100594.88;;;19.98;68.18
43161;BME280;40968;52.342;5.528;2023-07-29T09:04:03;100667.44;;;20.44;67.29
43161;BME280;40968;52.342;5.528;2023-07-29T09:06:32;100543.53;;;19.72;66.61
43161;BME280;40968;52.342;5.528;2023-07-29T09:08:59;100688.03;;;20.62;66.86
43161;BME280;40968;52.342;5.528;2023-07-29T09:11:27;100674.38;;;20.47;66.26
43161;BME280;40968;52.342;5.528;2023-07-29T09:13:53;100698.53;;;20.73;66.65
43161;BME280;40968;52.342;5.528;2023-07-29T09:16:21;100652.91;;;20.52;66.77
43161;BME280;40968;52.342;5.528;2023-07-29T09:18:48;100701.84;;;20.83;65.14
43161;BME280;40968;52.342;5.528;2023-07-29T09:21:16;100679.47;;;20.73;64.48
43161;BME280;40968;52.342;5.528;2023-07-29T09:23:44;100691.13;;;20.97;64.02
43161;BME280;40968;52.342;5.528;2023-07-29T09:26:11;100701.09;;;21.19;64.28
43161;BME280;40968;52.342;5.528;2023-07-29T09:28:38;100697.09;;;21.30;62.45
43161;BME280;40968;52.342;5.528;2023-07-29T09:31:05;100678.75;;;21.24;62.77
43161;BME280;40968;52.342;5.528;2023-07-29T09:33:34;100616.94;;;20.95;61.95
43161;BME280;40968;52.342;5.528;2023-07-29T09:38:28;100662.31;;;21.17;61.93
43161;BME280;40968;52.342;5.528;2023-07-29T09:40:57;100629.22;;;20.91;62.77
43161;BME280;40968;52.342;5.528;2023-07-29T09:43:30;100696.22;;;21.30;63.47
43161;BME280;40968;52.342;5.528;2023-07-29T09:46:00;100624.34;;;20.86;63.93
43161;BME280;40968;52.342;5.528;2023-07-29T09:48:27;100681.47;;;21.24;64.07
43161;BME280;40968;52.342;5.528;2023-07-29T09:50:54;100656.00;;;21.02;63.98
43161;BME280;40968;52.342;5.528;2023-07-29T09:53:21;100693.59;;;21.22;63.30
43161;BME280;40968;52.342;5.528;2023-07-29T09:55:48;100558.81;;;20.34;63.32
43161;BME280;40968;52.342;5.528;2023-07-29T09:58:19;100695.31;;;21.23;63.40
43161;BME280;40968;52.342;5.528;2023-07-29T10:00:46;100661.66;;;21.00;63.22
43161;BME280;40968;52.342;5.528;2023-07-29T10:03:14;100579.91;;;20.56;62.84
43161;BME280;40968;52.342;5.528;2023-07-29T10:05:41;100362.84;;;19.45;62.91
43161;BME280;40968;52.342;5.528;2023-07-29T10:08:10;100669.16;;;21.43;62.75
43161;BME280;40968;52.342;5.528;2023-07-29T10:10:37;100683.41;;;21.75;61.40
43161;BME280;40968;52.342;5.528;2023-07-29T10:13:04;100687.88;;;21.98;60.01
43161;BME280;40968;52.342;5.528;2023-07-29T10:15:33;100693.22;;;22.28;59.83
43161;BME280;40968;52.342;5.528;2023-07-29T10:18:01;100701.47;;;22.34;59.66
43161;BME280;40968;52.342;5.528;2023-07-29T10:20:28;100693.38;;;22.41;58.34
43161;BME280;40968;52.342;5.528;2023-07-29T10:22:59;100695.44;;;22.61;57.35
43161;BME280;40968;52.342;5.528;2023-07-29T10:25:30;100619.91;;;22.03;56.19
43161;BME280;40968;52.342;5.528;2023-07-29T10:28:04;100676.97;;;22.19;56.05
43161;BME280;40968;52.342;5.528;2023-07-29T10:30:33;100693.81;;;22.23;56.90
43161;BME280;40968;52.342;5.528;2023-07-29T10:33:02;100630.84;;;21.81;57.65
43161;BME280;40968;52.342;5.528;2023-07-29T10:35:29;100692.56;;;22.26;57.91
43161;BME280;40968;52.342;5.528;2023-07-29T10:37:56;100653.66;;;22.17;58.29
43161;BME280;40968;52.342;5.528;2023-07-29T10:40:23;100524.69;;;21.43;57.95
43161;BME280;40968;52.342;5.528;2023-07-29T10:43:00;100663.97;;;22.22;57.95
43161;BME280;40968;52.342;5.528;2023-07-29T10:45:37;100637.22;;;22.10;58.22
43161;BME280;40968;52.342;5.528;2023-07-29T10:48:10;100623.81;;;21.94;58.55
43161;BME280;40968;52.342;5.528;2023-07-29T10:50:37;100713.00;;;22.30;59.06
43161;BME280;40968;52.342;5.528;2023-07-29T10:53:04;100682.34;;;21.91;59.26
43161;BME280;40968;52.342;5.528;2023-07-29T10:55:33;100634.28;;;21.39;63.34
43161;BME280;40968;52.342;5.528;2023-07-29T10:58:08;100718.59;;;21.70;65.53
43161;BME280;40968;52.342;5.528;2023-07-29T11:00:35;100493.59;;;20.26;67.30
43161;BME280;40968;52.342;5.528;2023-07-29T11:03:06;100663.72;;;21.28;67.44
43161;BME280;40968;52.342;5.528;2023-07-29T11:05:47;100704.97;;;21.70;67.66
43161;BME280;40968;52.342;5.528;2023-07-29T11:08:18;100702.53;;;21.97;66.72
43161;BME280;40968;52.342;5.528;2023-07-29T11:10:58;100662.56;;;21.67;67.30
43161;BME280;40968;52.342;5.528;2023-07-29T11:13:26;100672.63;;;21.67;64.90
43161;BME280;40968;52.342;5.528;2023-07-29T11:15:53;100685.53;;;21.58;64.41
43161;BME280;40968;52.342;5.528;2023-07-29T11:18:26;100496.81;;;20.45;64.85
43161;BME280;40968;52.342;5.528;2023-07-29T11:20:54;100653.13;;;21.18;62.96
43161;BME280;40968;52.342;5.528;2023-07-29T11:23:27;100676.69;;;21.11;63.52
43161;BME280;40968;52.342;5.528;2023-07-29T11:25:54;100667.28;;;20.99;65.31
43161;BME280;40968;52.342;5.528;2023-07-29T11:28:21;100685.03;;;21.10;65.06
43161;BME280;40968;52.342;5.528;2023-07-29T11:30:49;100730.72;;;21.37;65.31
43161;BME280;40968;52.342;5.528;2023-07-29T11:33:17;100689.28;;;21.12;65.47
43161;BME280;40968;52.342;5.528;2023-07-29T11:35:45;100699.16;;;21.13;65.57
43161;BME280;40968;52.342;5.528;2023-07-29T11:38:15;100692.00;;;21.12;65.53
43161;BME280;40968;52.342;5.528;2023-07-29T11:40:42;100612.09;;;20.67;65.50
43161;BME280;40968;52.342;5.528;2023-07-29T11:43:09;100727.16;;;21.37;65.35
43161;BME280;40968;52.342;5.528;2023-07-29T11:45:35;100574.72;;;20.46;65.74
43161;BME280;40968;52.342;5.528;2023-07-29T11:48:02;100685.13;;;21.16;65.69
43161;BME280;40968;52.342;5.528;2023-07-29T11:50:29;100678.28;;;21.20;66.20
43161;BME280;40968;52.342;5.528;2023-07-29T11:52:57;100642.94;;;20.97;66.57
43161;BME280;40968;52.342;5.528;2023-07-29T11:55:24;100721.22;;;21.48;66.07
43161;BME280;40968;52.342;5.528;2023-07-29T11:57:51;100670.09;;;21.20;66.81
43161;BME280;40968;52.342;5.528;2023-07-29T12:00:18;100668.41;;;21.19;66.66
43161;BME280;40968;52.342;5.528;2023-07-29T12:02:48;100672.28;;;21.25;66.62
43161;BME280;40968;52.342;5.528;2023-07-29T12:05:15;100718.72;;;21.62;66.40
43161;BME280;40968;52.342;5.528;2023-07-29T12:07:44;100726.84;;;21.92;66.07
43161;BME280;40968;52.342;5.528;2023-07-29T12:10:13;100622.28;;;21.33;65.86
43161;BME280;40968;52.342;5.528;2023-07-29T12:12:44;100723.75;;;22.16;65.81
43161;BME280;40968;52.342;5.528;2023-07-29T12:15:11;100700.38;;;22.29;64.92
43161;BME280;40968;52.342;5.528;2023-07-29T12:17:39;100707.41;;;22.60;62.77
43161;BME280;40968;52.342;5.528;2023-07-29T12:20:08;100720.34;;;23.01;61.24
43161;BME280;40968;52.342;5.528;2023-07-29T12:22:35;100712.44;;;23.41;60.29
43161;BME280;40968;52.342;5.528;2023-07-29T12:25:03;100737.88;;;23.42;57.44
43161;BME280;40968;52.342;5.528;2023-07-29T12:27:31;100644.16;;;23.20;56.38
43161;BME280;40968;52.342;5.528;2023-07-29T12:30:00;100686.69;;;23.77;57.62
43161;BME280;40968;52.342;5.528;2023-07-29T12:32:29;100701.38;;;24.25;55.63
43161;BME280;40968;52.342;5.528;2023-07-29T12:34:56;100663.91;;;24.19;55.08
43161;BME280;40968;52.342;5.528;2023-07-29T12:37:31;100714.53;;;24.83;53.99
43161;BME280;40968;52.342;5.528;2023-07-29T12:39:58;100716.81;;;24.86;53.21
43161;BME280;40968;52.342;5.528;2023-07-29T12:42:24;100643.25;;;24.23;53.10
43161;BME280;40968;52.342;5.528;2023-07-29T12:44:53;100724.38;;;24.50;53.37
43161;BME280;40968;52.342;5.528;2023-07-29T12:47:19;100718.44;;;24.27;54.19
43161;BME280;40968;52.342;5.528;2023-07-29T12:49:46;100709.16;;;24.14;54.11
43161;BME280;40968;52.342;5.528;2023-07-29T12:52:12;100718.88;;;24.24;54.03
43161;BME280;40968;52.342;5.528;2023-07-29T12:54:40;100718.19;;;24.08;53.45